Sagamore Hills, Ohio
Current Conditions -  °F | °C
As of 1:58 PM on Friday 31 Oct 2014 (Local Time) from KPOV Reporting Station
Overcast Overcast  
Wind Chill: 46°   Ceiling: 3000
Heat Index: 46°   Visibility: 10mi
Dew Point: 33°   Wind: 3mph
Humidity: 59%   Direction: 230°SW
Pressure: 29.86"   Gusts: NA
Location:  41.3128°N, 81.5476°W
Report Text: KPOV 311758Z AUTO 23003KT 10SM BKN030 OVC037 08/00 A2986 RMK AO2 T00800003
Loading
Personal Weather Stations






























Interactive Weather Map
Tropical Storm Tracking
New forecast layout! Learn more

10-Day Weather Forecast

Advertisements
Track Severe Weather on mobile